Time;durP1;ratioP1;P1;durP2;ratioP2;P2;SDS_P1;SDS_P2;PMS_P1;PMS_P2;Temp;Humidity;BMP_temperature;BMP_pressure;BME280_temperature;BME280_humidity;BME280_pressure;Samples;Min_cycle;Max_cycle;Signal;HPM_P1;HPM_P2
2022/12/09 00:00:25;;;;;;;;;;;;;;;2.62;75.88;100581.56;5038350;28;19929;-54
2022/12/09 00:02:51;;;;;;;;;;;;;;;2.62;76.18;100588.50;5046058;28;19975;-54
2022/12/09 00:05:16;;;;;;;;;;;;;;;2.61;76.22;100586.78;5042882;28;19943;-56
2022/12/09 00:07:41;;;;;;;;;;;;;;;2.59;76.12;100581.63;5048407;28;19964;-56
2022/12/09 00:10:07;;;;;;;;;;;;;;;2.58;76.16;100579.94;5048391;28;19928;-54
2022/12/09 00:12:32;;;;;;;;;;;;;;;2.59;76.21;100579.88;5048546;28;19913;-56
2022/12/09 00:14:57;;;;;;;;;;;;;;;2.57;76.18;100581.66;5049747;28;19917;-54
2022/12/09 00:17:23;;;;;;;;;;;;;;;2.56;76.14;100585.19;5049804;28;19916;-54
2022/12/09 00:19:48;;;;;;;;;;;;;;;2.54;76.24;100586.97;5046560;28;19925;-54
2022/12/09 00:22:13;;;;;;;;;;;;;;;2.55;76.41;100590.41;5048621;28;19921;-55
2022/12/09 00:24:38;;;;;;;;;;;;;;;2.56;76.36;100589.50;5048001;28;20021;-56
2022/12/09 00:27:04;;;;;;;;;;;;;;;2.56;76.59;100590.38;5049397;28;19923;-55
2022/12/09 00:29:29;;;;;;;;;;;;;;;2.57;76.38;100591.22;5049727;28;19921;-54
2022/12/09 00:31:54;;;;;;;;;;;;;;;2.58;76.11;100585.97;5047211;28;20019;-55
2022/12/09 00:34:20;;;;;;;;;;;;;;;2.60;76.22;100588.53;5047063;28;19932;-54
2022/12/09 00:36:45;;;;;;;;;;;;;;;2.62;75.95;100584.16;5047846;28;19983;-55
2022/12/09 00:39:11;;;;;;;;;;;;;;;2.60;75.74;100588.53;5047051;28;20435;-57
2022/12/09 00:41:36;;;;;;;;;;;;;;;2.63;75.63;100585.88;5042945;28;19939;-54
2022/12/09 00:44:02;;;;;;;;;;;;;;;2.68;75.36;100599.56;5047020;28;19913;-54
2022/12/09 00:46:27;;;;;;;;;;;;;;;2.68;75.22;100596.13;5050189;28;19955;-54
2022/12/09 00:48:52;;;;;;;;;;;;;;;2.64;75.14;100595.38;5046654;28;19927;-54
2022/12/09 00:51:20;;;;;;;;;;;;;;;2.68;74.99;100598.72;5047362;28;20458;-54
2022/12/09 00:53:46;;;;;;;;;;;;;;;2.62;74.77;100591.97;5045456;28;19916;-54
2022/12/09 00:58:39;;;;;;;;;;;;;;;2.62;75.11;100599.75;5087042;28;19928;-54
2022/12/09 01:01:04;;;;;;;;;;;;;;;2.64;75.24;100600.56;5089596;28;19969;-54
2022/12/09 01:03:30;;;;;;;;;;;;;;;2.64;74.87;100603.16;5083588;28;19920;-57
2022/12/09 01:05:55;;;;;;;;;;;;;;;2.64;74.76;100612.69;5084863;28;20706;-54
2022/12/09 01:08:20;;;;;;;;;;;;;;;2.68;75.15;100604.75;5061189;28;19923;-54
2022/12/09 01:10:46;;;;;;;;;;;;;;;2.71;74.83;100611.66;5059781;28;19945;-56
2022/12/09 01:13:12;;;;;;;;;;;;;;;2.69;74.58;100609.06;5057404;28;19948;-54
2022/12/09 01:15:37;;;;;;;;;;;;;;;2.71;74.58;100603.84;5061479;28;19929;-54
2022/12/09 01:18:04;;;;;;;;;;;;;;;2.69;74.76;100611.66;5067605;28;20411;-54
2022/12/09 01:20:29;;;;;;;;;;;;;;;2.63;74.92;100610.97;5069536;28;20287;-54
2022/12/09 01:22:54;;;;;;;;;;;;;;;2.62;74.87;100610.16;5068244;28;19920;-55
2022/12/09 01:25:19;;;;;;;;;;;;;;;2.57;75.09;100607.63;5065493;28;20379;-56
2022/12/09 01:27:45;;;;;;;;;;;;;;;2.54;75.15;100609.47;5069762;28;19921;-57
2022/12/09 01:30:11;;;;;;;;;;;;;;;2.53;75.12;100599.97;5066066;28;19916;-54
2022/12/09 01:32:37;;;;;;;;;;;;;;;2.51;75.06;100602.63;5066327;28;20007;-56
2022/12/09 01:35:03;;;;;;;;;;;;;;;2.51;74.51;100606.97;5067067;28;20009;-55
2022/12/09 01:37:30;;;;;;;;;;;;;;;2.47;74.22;100602.75;5065146;28;20024;-57
2022/12/09 01:39:56;;;;;;;;;;;;;;;2.43;74.25;100610.63;5061585;28;19924;-54
2022/12/09 01:42:22;;;;;;;;;;;;;;;2.41;74.05;100607.22;5059763;28;19920;-56
2022/12/09 01:45:06;;;;;;;;;;;;;;;2.33;73.99;100597.91;5066959;28;20056;-54
2022/12/09 01:47:32;;;;;;;;;;;;;;;2.22;74.29;100600.78;5068192;28;19924;-54
2022/12/09 01:49:57;;;;;;;;;;;;;;;2.12;74.17;100600.16;5067511;28;20391;-58
2022/12/09 01:52:22;;;;;;;;;;;;;;;-147.11;100.00;61570.13;5060104;28;19920;-53
2022/12/09 01:54:50;;;;;;;;;;;;;;;-147.11;100.00;61570.13;5065752;28;19923;-54
2022/12/09 01:57:16;;;;;;;;;;;;;;;-147.11;100.00;61570.13;5086873;28;19916;-54
2022/12/09 01:59:42;;;;;;;;;;;;;;;-147.11;100.00;61570.13;5108512;28;19924;-57
2022/12/09 02:02:09;;;;;;;;;;;;;;;-147.11;100.00;61570.13;5108224;27;20020;-57
2022/12/09 02:04:38;;;;;;;;;;;;;;;-147.11;100.00;61570.13;5108976;27;20425;-53
2022/12/09 02:07:04;;;;;;;;;;;;;;;-147.11;100.00;61570.13;5085265;28;19915;-54
2022/12/09 02:09:30;;;;;;;;;;;;;;;-147.11;100.00;61570.13;5108340;28;20317;-58
2022/12/09 02:12:01;;;;;;;;;;;;;;;-147.11;100.00;61570.13;5104645;27;21791;-54
2022/12/09 02:14:31;;;;;;;;;;;;;;;-147.11;100.00;61570.13;5090690;27;19916;-54
2022/12/09 02:17:06;;;;;;;;;;;;;;;-147.11;100.00;61570.13;5084797;28;20374;-53
2022/12/09 02:19:49;;;;;;;;;;;;;;;-147.11;100.00;61570.13;5105369;27;19924;-54
2022/12/09 02:22:18;;;;;;;;;;;;;;;-147.11;100.00;61570.13;5107868;27;19942;-54
2022/12/09 02:25:09;;;;;;;;;;;;;;;-147.11;100.00;61570.13;5104674;27;20057;-61
2022/12/09 02:27:43;;;;;;;;;;;;;;;-147.11;100.00;61570.13;5101573;27;20005;-54
2022/12/09 02:30:11;;;;;;;;;;;;;;;-147.11;100.00;61570.13;5104895;27;19966;-58
2022/12/09 02:32:36;;;;;;;;;;;;;;;-147.11;100.00;61570.13;5106754;27;19924;-56
2022/12/09 02:35:08;;;;;;;;;;;;;;;-147.11;100.00;61570.13;5104506;27;19923;-55
2022/12/09 02:37:38;;;;;;;;;;;;;;;-147.11;100.00;61570.13;5103666;27;19915;-54
2022/12/09 02:40:30;;;;;;;;;;;;;;;-147.11;100.00;61570.13;5097825;28;19923;-54
2022/12/09 02:42:57;;;;;;;;;;;;;;;-147.11;100.00;61570.13;5101426;27;19954;-55
2022/12/09 02:45:25;;;;;;;;;;;;;;;-147.11;100.00;61570.13;5083418;28;19975;-63
2022/12/09 02:47:51;;;;;;;;;;;;;;;-147.11;100.00;61570.13;5098408;28;19916;-60
2022/12/09 02:50:19;;;;;;;;;;;;;;;-147.11;100.00;61570.13;5102888;28;20971;-59
2022/12/09 02:52:45;;;;;;;;;;;;;;;-147.11;100.00;61570.13;5103728;28;19929;-58
2022/12/09 02:55:13;;;;;;;;;;;;;;;-147.11;100.00;61570.13;5107881;28;19941;-59
2022/12/09 02:57:39;;;;;;;;;;;;;;;-147.11;100.00;61570.13;5096998;28;19919;-54
2022/12/09 03:00:05;;;;;;;;;;;;;;;-147.11;100.00;61570.13;5101385;28;19969;-57
2022/12/09 03:02:32;;;;;;;;;;;;;;;-147.11;100.00;61570.13;5104187;27;19929;-54
2022/12/09 03:05:03;;;;;;;;;;;;;;;-147.11;100.00;61570.13;5105546;27;19912;-56
2022/12/09 03:07:46;;;;;;;;;;;;;;;-147.11;100.00;61570.13;5105531;27;19923;-54
2022/12/09 03:10:41;;;;;;;;;;;;;;;-147.11;100.00;61570.13;5100773;27;19919;-56
2022/12/09 03:13:12;;;;;;;;;;;;;;;-147.11;100.00;61570.13;5081996;28;20367;-54
2022/12/09 03:15:42;;;;;;;;;;;;;;;-147.11;100.00;61570.13;5102910;27;19922;-55
2022/12/09 03:18:10;;;;;;;;;;;;;;;-147.11;100.00;61570.13;5100185;28;19920;-55
2022/12/09 03:20:38;;;;;;;;;;;;;;;-147.11;100.00;61570.13;5100517;27;19959;-54
2022/12/09 03:23:05;;;;;;;;;;;;;;;-147.11;100.00;61570.13;5084588;28;20016;-53
2022/12/09 03:25:32;;;;;;;;;;;;;;;-147.11;100.00;61570.13;5102966;28;19919;-55
2022/12/09 03:28:04;;;;;;;;;;;;;;;-147.11;100.00;61570.13;5105399;28;19976;-57
2022/12/09 03:30:31;;;;;;;;;;;;;;;-147.11;100.00;61570.13;5105222;27;19952;-54
2022/12/09 03:32:57;;;;;;;;;;;;;;;-147.11;100.00;61570.13;5102478;28;19956;-58
2022/12/09 03:35:23;;;;;;;;;;;;;;;-147.11;100.00;61570.13;5103200;27;19911;-57
2022/12/09 03:37:50;;;;;;;;;;;;;;;-147.11;100.00;61570.13;5105126;27;19969;-55
2022/12/09 03:40:17;;;;;;;;;;;;;;;-147.11;100.00;61570.13;5108822;27;19942;-55
2022/12/09 03:42:52;;;;;;;;;;;;;;;-147.11;100.00;61570.13;5104422;28;19916;-54
2022/12/09 03:45:18;;;;;;;;;;;;;;;-147.11;100.00;61570.13;5106151;28;19920;-54
2022/12/09 03:47:43;;;;;;;;;;;;;;;-147.11;100.00;61570.13;5103407;28;19912;-54
2022/12/09 03:50:10;;;;;;;;;;;;;;;-147.11;100.00;61570.13;5082419;28;19916;-55
2022/12/09 03:52:47;;;;;;;;;;;;;;;-147.11;100.00;61570.13;5098246;28;19922;-55
2022/12/09 03:55:24;;;;;;;;;;;;;;;-147.11;100.00;61570.13;5099200;28;19912;-56
2022/12/09 03:57:58;;;;;;;;;;;;;;;-147.11;100.00;61570.13;5104200;28;19954;-53
2022/12/09 04:00:23;;;;;;;;;;;;;;;-147.11;100.00;61570.13;5107524;28;19961;-54
2022/12/09 04:02:49;;;;;;;;;;;;;;;-147.11;100.00;61570.13;5106349;28;20001;-58
2022/12/09 04:05:14;;;;;;;;;;;;;;;-147.11;100.00;61570.13;5086314;28;19922;-54
2022/12/09 04:07:40;;;;;;;;;;;;;;;-147.11;100.00;61570.13;5105224;28;19916;-57
2022/12/09 04:10:05;;;;;;;;;;;;;;;-147.11;100.00;61570.13;5091319;28;19948;-57
2022/12/09 04:12:31;;;;;;;;;;;;;;;-147.11;100.00;61570.13;5104218;28;19926;-54
2022/12/09 04:14:56;;;;;;;;;;;;;;;-147.11;100.00;61570.13;5099793;28;19919;-56
2022/12/09 04:17:21;;;;;;;;;;;;;;;-147.11;100.00;61570.13;5084982;27;19923;-56
2022/12/09 04:19:47;;;;;;;;;;;;;;;-147.11;100.00;61570.13;5102128;27;19927;-54
2022/12/09 04:22:12;;;;;;;;;;;;;;;-147.11;100.00;61570.13;5105060;28;19927;-54
2022/12/09 04:24:38;;;;;;;;;;;;;;;-147.11;100.00;61570.13;5102855;28;19944;-59
2022/12/09 04:27:03;;;;;;;;;;;;;;;-147.11;100.00;61570.13;5104955;28;19939;-54
2022/12/09 04:29:28;;;;;;;;;;;;;;;-147.11;100.00;61570.13;5085678;28;19962;-65
2022/12/09 04:31:54;;;;;;;;;;;;;;;-147.11;100.00;61570.13;5103338;28;20394;-57
2022/12/09 04:34:19;;;;;;;;;;;;;;;-147.11;100.00;61570.13;5085955;28;19927;-54
2022/12/09 04:36:44;;;;;;;;;;;;;;;-147.11;100.00;61570.13;5091410;28;19965;-54
2022/12/09 04:39:10;;;;;;;;;;;;;;;-147.11;100.00;61570.13;5106157;28;19911;-54
2022/12/09 04:41:35;;;;;;;;;;;;;;;-147.11;100.00;61570.13;5090731;28;19927;-54
2022/12/09 04:44:00;;;;;;;;;;;;;;;-147.11;100.00;61570.13;5098052;28;20270;-55
2022/12/09 04:46:26;;;;;;;;;;;;;;;-147.11;100.00;61570.13;5104328;28;19920;-54
2022/12/09 04:48:51;;;;;;;;;;;;;;;-147.11;100.00;61570.13;5107474;28;19968;-54
2022/12/09 04:51:17;;;;;;;;;;;;;;;-147.11;100.00;61570.13;5109152;27;19936;-60
2022/12/09 04:53:42;;;;;;;;;;;;;;;-147.11;100.00;61570.13;5109217;28;19953;-55
2022/12/09 04:56:10;;;;;;;;;;;;;;;-147.11;100.00;61570.13;5102693;27;19993;-58
2022/12/09 04:58:36;;;;;;;;;;;;;;;-147.11;100.00;61570.13;5092311;28;20362;-54
2022/12/09 05:01:05;;;;;;;;;;;;;;;-147.11;100.00;61570.13;5108286;28;20010;-57
2022/12/09 05:03:30;;;;;;;;;;;;;;;-147.11;100.00;61570.13;5109057;27;19923;-54
2022/12/09 05:05:56;;;;;;;;;;;;;;;-147.11;100.00;61570.13;5103609;27;19920;-55
2022/12/09 05:08:21;;;;;;;;;;;;;;;-147.11;100.00;61570.13;5110614;28;19916;-54
2022/12/09 05:10:48;;;;;;;;;;;;;;;-147.11;100.00;61570.13;5106402;27;20010;-59
2022/12/09 05:13:14;;;;;;;;;;;;;;;-147.11;100.00;61570.13;5089043;28;20397;-55
2022/12/09 05:15:39;;;;;;;;;;;;;;;-147.11;100.00;61570.13;5102394;28;19927;-57
2022/12/09 05:18:04;;;;;;;;;;;;;;;-147.11;100.00;61570.13;5092989;28;19923;-54
2022/12/09 05:20:30;;;;;;;;;;;;;;;-147.11;100.00;61570.13;5108854;28;20018;-54
2022/12/09 05:22:55;;;;;;;;;;;;;;;-147.11;100.00;61570.13;5109934;28;20010;-54
2022/12/09 05:25:21;;;;;;;;;;;;;;;-147.11;100.00;61570.13;5107163;28;19965;-54
2022/12/09 05:27:46;;;;;;;;;;;;;;;-147.11;100.00;61570.13;5103892;28;19941;-54
2022/12/09 05:30:11;;;;;;;;;;;;;;;-147.11;100.00;61570.13;5106115;28;19938;-61
2022/12/09 05:32:37;;;;;;;;;;;;;;;-147.11;100.00;61570.13;5086872;28;19967;-54
2022/12/09 05:35:02;;;;;;;;;;;;;;;-147.11;100.00;61570.13;5104936;28;19923;-57
2022/12/09 05:37:27;;;;;;;;;;;;;;;-147.11;100.00;61570.13;5102883;27;20286;-55
2022/12/09 05:39:53;;;;;;;;;;;;;;;-147.11;100.00;61570.13;5074162;28;20010;-57
2022/12/09 05:42:18;;;;;;;;;;;;;;;-147.11;100.00;61570.13;5104768;27;19931;-58
2022/12/09 05:44:43;;;;;;;;;;;;;;;-147.11;100.00;61570.13;5107932;27;20313;-54
2022/12/09 05:47:08;;;;;;;;;;;;;;;-147.11;100.00;61570.13;5101396;28;19919;-57
2022/12/09 05:49:34;;;;;;;;;;;;;;;-147.11;100.00;61570.13;5111288;27;19958;-55
2022/12/09 05:51:59;;;;;;;;;;;;;;;-147.11;100.00;61570.13;5098724;27;19926;-54
2022/12/09 05:54:25;;;;;;;;;;;;;;;-147.11;100.00;61570.13;5103591;28;19952;-56
2022/12/09 05:56:50;;;;;;;;;;;;;;;-147.11;100.00;61570.13;5100675;27;19921;-57
2022/12/09 05:59:15;;;;;;;;;;;;;;;-147.11;100.00;61570.13;5114151;27;19920;-54
2022/12/09 06:01:41;;;;;;;;;;;;;;;-147.11;100.00;61570.13;5103825;27;20006;-55
2022/12/09 06:04:06;;;;;;;;;;;;;;;-147.11;100.00;61570.13;5083422;28;20352;-54
2022/12/09 06:06:31;;;;;;;;;;;;;;;-147.11;100.00;61570.13;5106508;27;19929;-57
2022/12/09 06:08:58;;;;;;;;;;;;;;;-147.11;100.00;61570.13;5098704;27;20006;-57
2022/12/09 06:11:24;;;;;;;;;;;;;;;-147.11;100.00;61570.13;5109089;27;19916;-54
2022/12/09 06:13:49;;;;;;;;;;;;;;;-147.11;100.00;61570.13;5105072;27;20018;-55
2022/12/09 06:16:17;;;;;;;;;;;;;;;-147.11;100.00;61570.13;5103674;27;20450;-60
2022/12/09 06:18:43;;;;;;;;;;;;;;;-147.11;100.00;61570.13;5107465;27;19919;-57
2022/12/09 06:21:09;;;;;;;;;;;;;;;-147.11;100.00;61570.13;5107017;28;19920;-54
2022/12/09 06:23:35;;;;;;;;;;;;;;;-147.11;100.00;61570.13;5116821;28;19924;-55
2022/12/09 06:26:01;;;;;;;;;;;;;;;-147.11;100.00;61570.13;5116015;27;20371;-54
2022/12/09 06:28:27;;;;;;;;;;;;;;;-147.11;100.00;61570.13;5101953;28;19912;-54
2022/12/09 06:30:52;;;;;;;;;;;;;;;-147.11;100.00;61570.13;5117890;27;19911;-55
2022/12/09 06:33:18;;;;;;;;;;;;;;;-147.11;100.00;61570.13;5096062;28;20337;-58
2022/12/09 06:35:43;;;;;;;;;;;;;;;-147.11;100.00;61570.13;5112126;28;20366;-57
2022/12/09 06:38:08;;;;;;;;;;;;;;;-147.11;100.00;61570.13;5109237;28;19955;-56
2022/12/09 06:40:34;;;;;;;;;;;;;;;-147.11;100.00;61570.13;5114002;27;19924;-57
2022/12/09 06:42:59;;;;;;;;;;;;;;;-147.11;100.00;61570.13;5112393;27;19916;-56
2022/12/09 06:45:25;;;;;;;;;;;;;;;-147.11;100.00;61570.13;5117165;27;20560;-55
2022/12/09 06:47:50;;;;;;;;;;;;;;;-147.11;100.00;61570.13;5100019;28;20423;-56
2022/12/09 06:50:16;;;;;;;;;;;;;;;-147.11;100.00;61570.13;5088464;28;19920;-60
2022/12/09 06:52:41;;;;;;;;;;;;;;;-147.11;100.00;61570.13;5116851;27;20454;-57
2022/12/09 06:55:07;;;;;;;;;;;;;;;-147.11;100.00;61570.13;5109843;27;19919;-56
2022/12/09 06:57:58;;;;;;;;;;;;;;;-147.11;100.00;61570.13;5112946;27;19969;31
2022/12/09 07:00:24;;;;;;;;;;;;;;;-147.11;100.00;61570.13;5014530;28;19925;-54
2022/12/09 07:02:50;;;;;;;;;;;;;;;-147.11;100.00;61570.13;5026943;28;20024;-57
2022/12/09 07:05:15;;;;;;;;;;;;;;;-147.11;100.00;61570.13;5029382;28;19967;-54
2022/12/09 07:07:40;;;;;;;;;;;;;;;-147.11;100.00;61570.13;5033042;28;19917;-54
2022/12/09 07:10:06;;;;;;;;;;;;;;;-147.11;100.00;61570.13;5044621;28;20390;-54
2022/12/09 07:12:32;;;;;;;;;;;;;;;-147.11;100.00;61570.13;5041803;28;20346;-54
2022/12/09 07:14:57;;;;;;;;;;;;;;;-147.11;100.00;61570.13;5047791;28;19917;-54
2022/12/09 07:17:23;;;;;;;;;;;;;;;-147.11;100.00;61570.13;5048348;28;19929;-55
2022/12/09 07:19:48;;;;;;;;;;;;;;;-147.11;100.00;61570.13;5054845;28;19913;-54
2022/12/09 07:22:14;;;;;;;;;;;;;;;-147.11;100.00;61570.13;5044525;28;19920;-56
2022/12/09 07:24:40;;;;;;;;;;;;;;;-147.11;100.00;61570.13;5050926;28;19929;-55
2022/12/09 07:27:06;;;;;;;;;;;;;;;-147.11;100.00;61570.13;5047859;28;19913;-57
2022/12/09 07:29:32;;;;;;;;;;;;;;;-147.11;100.00;61570.13;5032236;28;20394;-54
2022/12/09 07:31:58;;;;;;;;;;;;;;;-147.11;100.00;61570.13;5044673;28;19917;-54
2022/12/09 07:34:23;;;;;;;;;;;;;;;-147.11;100.00;61570.13;5049717;28;19916;-57
2022/12/09 07:36:48;;;;;;;;;;;;;;;-147.11;100.00;61570.13;5046001;28;19917;-57
2022/12/09 07:39:15;;;;;;;;;;;;;;;-147.11;100.00;61570.13;5047782;28;20040;-55
2022/12/09 07:41:40;;;;;;;;;;;;;;;-147.11;100.00;61570.13;5044581;28;19940;-54
2022/12/09 07:44:06;;;;;;;;;;;;;;;-147.11;100.00;61570.13;5047413;28;20396;-54
2022/12/09 07:46:31;;;;;;;;;;;;;;;-147.11;100.00;61570.13;5044077;28;19971;-54
2022/12/09 07:48:57;;;;;;;;;;;;;;;-147.11;100.00;61570.13;5030803;28;19924;-54
2022/12/09 07:51:23;;;;;;;;;;;;;;;-147.11;100.00;61570.13;5043121;28;19972;-54
2022/12/09 07:53:49;;;;;;;;;;;;;;;-147.11;100.00;61570.13;5051407;28;19956;-54
2022/12/09 07:56:15;;;;;;;;;;;;;;;-147.11;100.00;61570.13;5052563;28;19913;-57
2022/12/09 07:58:41;;;;;;;;;;;;;;;-147.11;100.00;61570.13;5055861;28;19916;-54
2022/12/09 08:01:14;;;;;;;;;;;;;;;-147.11;100.00;61570.13;5070049;28;21011;-54
2022/12/09 08:03:40;;;;;;;;;;;;;;;-147.11;100.00;61570.13;5066682;28;20410;-54
2022/12/09 08:06:06;;;;;;;;;;;;;;;-147.11;100.00;61570.13;5074924;28;19955;-54
2022/12/09 08:08:32;;;;;;;;;;;;;;;-147.11;100.00;61570.13;5071196;28;19940;-53
2022/12/09 08:11:11;;;;;;;;;;;;;;;-147.11;100.00;61570.13;5074273;28;19916;-54
2022/12/09 08:13:36;;;;;;;;;;;;;;;-147.11;100.00;61570.13;5069585;28;20382;-54
2022/12/09 08:16:05;;;;;;;;;;;;;;;-147.11;100.00;61570.13;5065871;28;19921;-55
2022/12/09 08:18:32;;;;;;;;;;;;;;;-147.11;100.00;61570.13;5060413;28;20027;-54
2022/12/09 08:20:57;;;;;;;;;;;;;;;-147.11;100.00;61570.13;5065854;28;20391;-54
2022/12/09 08:23:22;;;;;;;;;;;;;;;-147.11;100.00;61570.13;5068255;28;19959;-54
2022/12/09 08:25:54;;;;;;;;;;;;;;;-147.11;100.00;61570.13;5070333;28;19923;-54
2022/12/09 08:28:19;;;;;;;;;;;;;;;-147.11;100.00;61570.13;5070205;28;19924;-54
2022/12/09 08:30:44;;;;;;;;;;;;;;;-147.11;100.00;61570.13;5053304;28;19943;-57
2022/12/09 08:33:10;;;;;;;;;;;;;;;-147.11;100.00;61570.13;5072338;28;19923;-54
2022/12/09 08:35:38;;;;;;;;;;;;;;;-147.11;100.00;61570.13;5063239;28;19928;-56
2022/12/09 08:38:03;;;;;;;;;;;;;;;-147.11;100.00;61570.13;5076113;28;19952;-54
2022/12/09 08:40:29;;;;;;;;;;;;;;;-147.11;100.00;61570.13;5080424;28;19963;-54
2022/12/09 08:42:54;;;;;;;;;;;;;;;-147.11;100.00;61570.13;5060213;28;19967;-54
2022/12/09 08:45:20;;;;;;;;;;;;;;;-147.11;100.00;61570.13;5068656;28;19935;-55
2022/12/09 08:47:45;;;;;;;;;;;;;;;-147.11;100.00;61570.13;5070425;28;19948;-54
2022/12/09 08:50:10;;;;;;;;;;;;;;;-147.11;100.00;61570.13;5069196;28;19916;-56
2022/12/09 08:52:35;;;;;;;;;;;;;;;-147.11;100.00;61570.13;5062800;28;19920;-54
2022/12/09 08:55:01;;;;;;;;;;;;;;;-147.11;100.00;61570.13;5070856;28;20432;-54
2022/12/09 08:57:27;;;;;;;;;;;;;;;-147.11;100.00;61570.13;5066492;28;19924;-54
2022/12/09 08:59:53;;;;;;;;;;;;;;;-147.11;100.00;61570.13;5069677;28;19978;-56
2022/12/09 09:02:21;;;;;;;;;;;;;;;-147.11;100.00;61570.13;5071892;28;19916;-54
2022/12/09 09:04:46;;;;;;;;;;;;;;;-147.11;100.00;61570.13;5070768;28;19978;-54
2022/12/09 09:07:15;;;;;;;;;;;;;;;-147.11;100.00;61570.13;5069491;28;19916;-55
2022/12/09 09:09:40;;;;;;;;;;;;;;;-147.11;100.00;61570.13;5077343;28;20349;-54
2022/12/09 09:12:05;;;;;;;;;;;;;;;-147.11;100.00;61570.13;5066515;28;20014;-59
2022/12/09 09:14:31;;;;;;;;;;;;;;;-147.11;100.00;61570.13;5067680;28;19916;-54
2022/12/09 09:16:57;;;;;;;;;;;;;;;-147.11;100.00;61570.13;5072783;28;19917;-55
2022/12/09 09:19:26;;;;;;;;;;;;;;;-147.11;100.00;61570.13;5063228;28;19896;-56
2022/12/09 09:21:56;;;;;;;;;;;;;;;-147.11;100.00;61570.13;5068239;28;20414;-54
2022/12/09 09:24:23;;;;;;;;;;;;;;;-147.11;100.00;61570.13;5055449;28;20377;-53
2022/12/09 09:26:50;;;;;;;;;;;;;;;-147.11;100.00;61570.13;5050621;28;19916;-56
2022/12/09 09:29:17;;;;;;;;;;;;;;;-147.11;100.00;61570.13;5052362;28;19924;-55
2022/12/09 09:31:53;;;;;;;;;;;;;;;;;;;;;
2022/12/09 09:34:19;;;;;;;;;;;;;;;-147.11;100.00;61570.13;5069504;28;19912;-53
2022/12/09 09:36:47;;;;;;;;;;;;;;;1.55;76.58;100687.09;5072806;28;19962;-56
2022/12/09 09:39:16;;;;;;;;;;;;;;;1.58;76.46;100687.88;5076269;28;20363;-54
2022/12/09 09:41:44;;;;;;;;;;;;;;;1.63;76.33;100677.41;5059181;28;19916;-54
2022/12/09 09:44:21;;;;;;;;;;;;;;;1.71;76.11;100685.00;5074075;28;19966;-54
2022/12/09 09:46:53;;;;;;;;;;;;;;;1.73;75.98;100688.44;5070681;28;19920;-54
2022/12/09 09:49:25;;;;;;;;;;;;;;;1.80;76.35;100685.66;5059507;28;19919;-54
2022/12/09 09:51:54;;;;;;;;;;;;;;;1.91;76.25;100692.34;5078201;28;19913;-53
2022/12/09 09:54:20;;;;;;;;;;;;;;;2.02;75.87;100697.31;5071805;28;20405;-55
2022/12/09 09:57:18;;;;;;;;;;;;;;;2.11;75.71;100695.34;5087607;28;19916;-54
2022/12/09 10:00:02;;;;;;;;;;;;;;;2.18;75.19;100687.44;5035427;28;19917;-55
2022/12/09 10:02:31;;;;;;;;;;;;;;;2.22;74.88;100683.84;5055378;28;19978;-54
2022/12/09 10:05:04;;;;;;;;;;;;;;;2.23;74.73;100683.84;5051792;28;20418;-54
2022/12/09 10:07:35;;;;;;;;;;;;;;;2.26;74.86;100685.50;5051053;28;20379;-54
2022/12/09 10:10:33;;;;;;;;;;;;;;;2.31;74.68;100687.97;5054891;28;19913;-54
2022/12/09 10:13:01;;;;;;;;;;;;;;;2.33;74.41;100681.88;4998036;28;19921;-55
2022/12/09 10:15:34;;;;;;;;;;;;;;;2.36;74.62;100675.75;5053823;28;19928;-55
2022/12/09 10:18:17;;;;;;;;;;;;;;;2.42;74.49;100686.81;5060020;28;19912;-53
2022/12/09 10:20:42;;;;;;;;;;;;;;;2.43;74.28;100680.75;5048974;28;19999;-55
2022/12/09 10:23:12;;;;;;;;;;;;;;;2.42;74.35;100676.44;5054024;28;20011;-54
2022/12/09 10:25:42;;;;;;;;;;;;;;;2.47;74.28;100680.69;5050903;28;19921;-55
2022/12/09 10:28:16;;;;;;;;;;;;;;;2.50;74.13;100689.22;5055364;28;19963;-55
2022/12/09 10:30:42;;;;;;;;;;;;;;;2.52;74.14;100678.78;5050581;28;20335;-55
2022/12/09 10:33:14;;;;;;;;;;;;;;;2.56;74.09;100678.72;5050270;28;20022;-55
2022/12/09 10:35:40;;;;;;;;;;;;;;;2.59;74.11;100675.16;5051078;28;21234;-54
2022/12/09 10:38:13;;;;;;;;;;;;;;;2.61;74.16;100673.38;5050496;28;19925;-54
2022/12/09 10:40:45;;;;;;;;;;;;;;;2.63;73.98;100676.81;5029848;28;19920;-56
2022/12/09 10:43:36;;;;;;;;;;;;;;;2.58;74.01;100671.69;5060872;28;19917;-56
2022/12/09 10:46:22;;;;;;;;;;;;;;;2.54;73.99;100669.22;5058433;28;19920;-54
2022/12/09 10:48:48;;;;;;;;;;;;;;;2.43;73.80;100667.75;5059781;28;19983;-54
2022/12/09 10:51:15;;;;;;;;;;;;;;;2.36;73.90;100668.78;5046412;28;19916;-55
2022/12/09 10:53:46;;;;;;;;;;;;;;;2.33;74.10;100665.44;5057433;28;19990;-57
2022/12/09 10:56:17;;;;;;;;;;;;;;;2.28;74.07;100663.78;5039746;28;19916;-55
2022/12/09 10:58:42;;;;;;;;;;;;;;;2.24;74.42;100667.38;5061548;28;20287;-54
2022/12/09 11:01:11;;;;;;;;;;;;;;;2.22;74.32;100670.88;5071239;28;19921;-55
2022/12/09 11:03:38;;;;;;;;;;;;;;;2.22;74.32;100668.28;5067591;28;19920;-54
2022/12/09 11:06:15;;;;;;;;;;;;;;;2.22;73.98;100657.88;5067554;28;19920;-54
2022/12/09 11:08:40;;;;;;;;;;;;;;;2.26;74.19;100663.00;5070346;28;20413;-56
2022/12/09 11:11:06;;;;;;;;;;;;;;;2.26;73.91;100668.19;5071718;28;19916;-56
2022/12/09 11:13:36;;;;;;;;;;;;;;;2.24;73.81;100662.19;5070145;28;20406;-55
2022/12/09 11:16:03;;;;;;;;;;;;;;;2.19;74.03;100664.03;5040569;28;19963;-55
2022/12/09 11:18:36;;;;;;;;;;;;;;;2.18;74.16;100666.66;5071572;28;19913;-55
2022/12/09 11:21:03;;;;;;;;;;;;;;;2.18;74.27;100648.50;5071528;28;19919;-55
2022/12/09 11:23:29;;;;;;;;;;;;;;;2.20;74.25;100660.53;5062440;28;20413;-54
2022/12/09 11:25:54;;;;;;;;;;;;;;;2.24;74.45;100658.72;5069610;28;19924;-54
2022/12/09 11:28:24;;;;;;;;;;;;;;;2.27;74.51;100654.28;5056033;28;20347;-54
2022/12/09 11:31:01;;;;;;;;;;;;;;;2.31;74.37;100654.22;5066388;28;19924;-55
2022/12/09 11:33:31;;;;;;;;;;;;;;;2.37;74.52;100652.31;5068378;28;19917;-55
2022/12/09 11:36:09;;;;;;;;;;;;;;;2.39;74.43;100658.34;5070911;28;19913;-55
2022/12/09 11:38:42;;;;;;;;;;;;;;;2.43;74.45;100657.38;5068220;28;19924;-55
2022/12/09 11:41:10;;;;;;;;;;;;;;;2.43;74.15;100651.31;5069391;28;20003;-55
2022/12/09 11:43:38;;;;;;;;;;;;;;;2.44;74.15;100651.28;5070017;28;19917;-55
2022/12/09 11:46:14;;;;;;;;;;;;;;;2.41;73.99;100643.56;5063601;28;19920;-56
2022/12/09 11:48:40;;;;;;;;;;;;;;;2.40;73.63;100648.81;5069545;28;19916;-56
2022/12/09 11:51:06;;;;;;;;;;;;;;;2.31;74.07;100641.22;5070321;28;19923;-57
2022/12/09 11:53:33;;;;;;;;;;;;;;;2.28;73.96;100642.19;5064126;28;20339;-56
2022/12/09 11:56:02;;;;;;;;;;;;;;;2.20;74.11;100637.16;5051579;28;19928;-54
2022/12/09 11:58:34;;;;;;;;;;;;;;;2.17;74.17;100641.59;5068838;28;20413;-56
2022/12/09 12:01:02;;;;;;;;;;;;;;;2.13;74.19;100639.06;5067486;28;19966;-54
2022/12/09 12:03:35;;;;;;;;;;;;;;;2.12;74.29;100636.50;5072109;28;20007;-54
2022/12/09 12:06:02;;;;;;;;;;;;;;;2.08;74.74;100630.53;5067111;28;19920;-54
2022/12/09 12:08:31;;;;;;;;;;;;;;;2.09;74.60;100632.22;5071128;28;20045;-56
2022/12/09 12:11:03;;;;;;;;;;;;;;;2.06;74.72;100632.31;5072979;28;19956;-55
2022/12/09 12:13:35;;;;;;;;;;;;;;;2.05;74.55;100635.78;5067639;28;19912;-55
2022/12/09 12:16:06;;;;;;;;;;;;;;;2.05;74.49;100627.16;5067939;28;20332;-55
2022/12/09 12:18:49;;;;;;;;;;;;;;;2.05;74.56;100624.56;5070772;28;19923;-55
2022/12/09 12:21:38;;;;;;;;;;;;;;;2.06;74.75;100627.09;5069958;28;20390;-55
2022/12/09 12:24:13;;;;;;;;;;;;;;;2.06;75.12;100634.91;5061078;28;19955;-55
2022/12/09 12:26:38;;;;;;;;;;;;;;;2.12;75.35;100626.97;5062657;28;20417;-55
2022/12/09 12:29:30;;;;;;;;;;;;;;;2.20;75.17;100631.09;5070665;28;19916;-55
2022/12/09 12:31:55;;;;;;;;;;;;;;;2.23;75.00;100637.09;5036077;28;19917;-54
2022/12/09 12:34:26;;;;;;;;;;;;;;;2.25;74.64;100627.53;5074218;28;19924;-55
2022/12/09 12:36:57;;;;;;;;;;;;;;;2.28;74.61;100631.78;5069973;28;19927;-54